Time;durP1;ratioP1;P1;durP2;ratioP2;P2;SDS_P1;SDS_P2;PMS_P1;PMS_P2;Temp;Humidity;BMP_temperature;BMP_pressure;BME280_temperature;BME280_humidity;BME280_pressure;Samples;Min_cycle;Max_cycle;Signal;HPM_P1;HPM_P2
2023/01/18 00:01:07;;;;;;;;;;;;;;;20.07;50.36;98591.81;4900789;29;4195;-62
2023/01/18 00:03:33;;;;;;;;;;;;;;;20.06;50.33;98591.06;4901234;29;4121;-61
2023/01/18 00:06:03;;;;;;;;;;;;;;;20.06;50.42;98591.06;4899659;29;4092;-61
2023/01/18 00:08:29;;;;;;;;;;;;;;;20.07;50.35;98583.91;4901416;29;4043;-62
2023/01/18 00:11:02;;;;;;;;;;;;;;;20.07;50.37;98580.31;4902048;29;4254;-61
2023/01/18 00:13:28;;;;;;;;;;;;;;;20.07;50.25;98580.31;4901264;29;5407;-62
2023/01/18 00:16:00;;;;;;;;;;;;;;;20.08;50.14;98576.00;4897631;29;5279;-61
2023/01/18 00:18:26;;;;;;;;;;;;;;;20.07;50.27;98581.03;4901166;29;5285;-60
2023/01/18 00:20:52;;;;;;;;;;;;;;;20.08;50.46;98570.97;4903503;29;6077;-61
2023/01/18 00:23:19;;;;;;;;;;;;;;;20.08;50.40;98559.47;4897395;29;4410;-61
2023/01/18 00:25:45;;;;;;;;;;;;;;;20.08;50.19;98553.75;4900608;29;5304;-61
2023/01/18 00:28:11;;;;;;;;;;;;;;;20.08;50.21;98553.03;4900805;29;4227;-60
2023/01/18 00:30:38;;;;;;;;;;;;;;;20.07;50.36;98546.56;4897038;29;4201;-61
2023/01/18 00:33:04;;;;;;;;;;;;;;;20.07;50.43;98549.44;4898647;29;4048;-60
2023/01/18 00:35:30;;;;;;;;;;;;;;;20.04;50.27;98553.72;4895137;29;4221;-61
2023/01/18 00:37:57;;;;;;;;;;;;;;;20.04;50.37;98550.84;4895617;29;4221;-61
2023/01/18 00:40:27;;;;;;;;;;;;;;;20.04;50.26;98550.84;4898028;29;4199;-61
2023/01/18 00:45:39;;;;;;;;;;;;;;;20.01;50.33;98563.72;4900096;29;5067;-61
2023/01/18 00:48:06;;;;;;;;;;;;;;;20.03;50.35;98568.78;4896880;29;4142;-61
2023/01/18 00:50:32;;;;;;;;;;;;;;;20.01;50.23;98566.59;4899967;29;5375;-61
2023/01/18 00:52:58;;;;;;;;;;;;;;;20.02;50.26;98570.91;4895161;29;4234;-61
2023/01/18 00:55:25;;;;;;;;;;;;;;;20.02;50.23;98579.53;4883332;29;5478;-61
2023/01/18 00:57:52;;;;;;;;;;;;;;;20.05;50.30;98583.88;4897212;29;4704;-61
2023/01/18 01:00:19;;;;;;;;;;;;;;;20.05;50.18;98581.00;4898531;29;4115;-61
2023/01/18 01:02:45;;;;;;;;;;;;;;;20.03;50.20;98580.25;4894124;29;4231;-61
2023/01/18 01:08:00;;;;;;;;;;;;;;;20.05;50.18;98594.66;4884502;29;4220;-61
2023/01/18 01:10:26;;;;;;;;;;;;;;;20.04;50.37;98599.69;4899330;29;4276;-61
2023/01/18 01:26:37;;;;;;;;;;;;;;;19.98;50.35;98619.69;4896463;29;4220;-61
2023/01/18 01:29:04;;;;;;;;;;;;;;;20.00;50.32;98624.75;4899619;29;5384;-61
2023/01/18 01:31:30;;;;;;;;;;;;;;;20.00;50.17;98625.47;4898476;29;4570;-61
2023/01/18 01:33:56;;;;;;;;;;;;;;;20.00;50.21;98634.09;4895992;29;4144;-61
2023/01/18 01:36:25;;;;;;;;;;;;;;;20.01;50.12;98646.31;4897778;29;4211;-61
2023/01/18 01:38:52;;;;;;;;;;;;;;;20.01;50.19;98640.56;4898066;29;4294;-61
2023/01/18 01:41:24;;;;;;;;;;;;;;;20.02;50.07;98636.25;4898950;29;4207;-61
2023/01/18 01:43:54;;;;;;;;;;;;;;;20.02;50.16;98654.22;4898003;29;4167;-61
2023/01/18 01:46:24;;;;;;;;;;;;;;;20.01;50.20;98652.75;4899476;29;4194;-61
2023/01/18 01:48:52;;;;;;;;;;;;;;;20.02;50.30;98659.22;4911478;29;4442;-61
2023/01/18 01:51:19;;;;;;;;;;;;;;;20.01;50.15;98652.75;4899074;29;4116;-61
2023/01/18 01:53:45;;;;;;;;;;;;;;;19.99;50.29;98655.59;4896408;29;3895;-60
2023/01/18 01:56:12;;;;;;;;;;;;;;;19.99;50.31;98652.72;4897885;29;4147;-61
2023/01/18 01:58:38;;;;;;;;;;;;;;;19.98;50.16;98654.16;4899975;29;4136;-61
2023/01/18 02:01:04;;;;;;;;;;;;;;;19.99;50.25;98649.13;4897688;29;4201;-61
2023/01/18 02:03:31;;;;;;;;;;;;;;;19.98;50.22;98641.97;4897894;29;4263;-61
2023/01/18 02:06:04;;;;;;;;;;;;;;;19.98;50.29;98650.59;4897955;29;4246;-61
2023/01/18 02:08:30;;;;;;;;;;;;;;;19.97;50.18;98654.84;4898000;29;4150;-61
2023/01/18 02:10:57;;;;;;;;;;;;;;;19.97;50.23;98664.19;4898509;29;4207;-61
2023/01/18 02:13:23;;;;;;;;;;;;;;;19.96;50.27;98680.00;4901435;29;4198;-61
2023/01/18 02:16:11;;;;;;;;;;;;;;;19.98;50.00;98680.03;4896375;29;5379;-61
2023/01/18 02:18:43;;;;;;;;;;;;;;;19.99;50.25;98678.59;4909484;29;4131;-61
2023/01/18 02:21:19;;;;;;;;;;;;;;;19.99;50.07;98680.75;4894812;29;5317;-61
2023/01/18 02:23:48;;;;;;;;;;;;;;;19.98;50.04;98682.91;4898249;29;5383;-61
2023/01/18 02:26:33;;;;;;;;;;;;;;;19.99;50.16;98675.72;4894118;29;4199;-61
2023/01/18 02:29:03;;;;;;;;;;;;;;;19.99;50.03;98672.84;4890467;29;4256;-61
2023/01/18 02:31:32;;;;;;;;;;;;;;;19.99;50.13;98672.84;4898332;29;5229;-61
2023/01/18 02:34:17;;;;;;;;;;;;;;;20.00;50.07;98673.59;4900357;29;4281;-61
2023/01/18 02:36:50;;;;;;;;;;;;;;;19.98;50.16;98677.16;4902044;29;4018;-61
2023/01/18 02:39:22;;;;;;;;;;;;;;;19.96;50.21;98668.50;4914666;29;4346;-61
2023/01/18 02:47:25;;;;;;;;;;;;;;;19.95;50.05;98672.06;4890245;29;4086;-61
2023/01/18 02:49:51;;;;;;;;;;;;;;;19.94;50.20;98677.09;4899949;29;5215;-61
2023/01/18 02:52:34;;;;;;;;;;;;;;;19.96;50.12;98667.78;4898301;29;4157;-61
2023/01/18 02:55:01;;;;;;;;;;;;;;;19.95;50.02;98672.81;4888635;29;3995;-61
2023/01/18 02:57:27;;;;;;;;;;;;;;;19.95;49.99;98669.94;4900091;29;4446;-61
2023/01/18 02:59:54;;;;;;;;;;;;;;;19.95;49.97;98678.56;4901432;29;4146;-61
2023/01/18 03:02:20;;;;;;;;;;;;;;;19.96;50.05;98682.88;4900863;29;4362;-61
2023/01/18 04:04:26;;;;;;;;;;;;;;;19.97;49.99;98687.19;4881055;29;3979;-60
2023/01/18 04:06:53;;;;;;;;;;;;;;;19.98;50.04;98680.03;4874602;29;4206;-60
2023/01/18 04:09:19;;;;;;;;;;;;;;;19.98;49.95;98688.63;4900664;29;4296;-60
2023/01/18 04:11:45;;;;;;;;;;;;;;;19.97;49.83;98690.03;4901361;29;4169;-60
2023/01/18 04:14:12;;;;;;;;;;;;;;;19.99;49.93;98687.19;4898495;29;4071;-60
2023/01/18 04:16:38;;;;;;;;;;;;;;;19.98;49.92;98682.91;4898896;29;4125;-60
2023/01/18 04:19:06;;;;;;;;;;;;;;;19.99;49.93;98695.81;4897659;29;4184;-60
2023/01/18 04:21:32;;;;;;;;;;;;;;;19.99;49.82;98690.06;4891788;29;4191;-60
2023/01/18 04:23:59;;;;;;;;;;;;;;;19.99;49.96;98695.81;4886802;29;4244;-60
2023/01/18 04:26:25;;;;;;;;;;;;;;;19.98;49.97;98691.50;4889621;29;4210;-60
2023/01/18 04:28:51;;;;;;;;;;;;;;;19.98;49.92;98691.50;4890635;29;5224;-59
2023/01/18 04:31:18;;;;;;;;;;;;;;;19.98;49.83;98687.91;4892443;29;5349;-60
2023/01/18 04:33:44;;;;;;;;;;;;;;;19.97;49.97;98687.19;4891078;29;5123;-60
2023/01/18 04:36:10;;;;;;;;;;;;;;;19.96;49.93;98685.72;4889759;29;4204;-60
2023/01/18 04:38:37;;;;;;;;;;;;;;;19.95;49.94;98689.28;4887173;29;5302;-60
2023/01/18 04:41:03;;;;;;;;;;;;;;;19.96;49.74;98688.59;4889389;29;4031;-60
2023/01/18 04:43:30;;;;;;;;;;;;;;;19.98;49.75;98679.31;4892003;29;4107;-60
2023/01/18 04:45:56;;;;;;;;;;;;;;;19.97;49.87;98692.91;4888549;29;4093;-60
2023/01/18 04:48:22;;;;;;;;;;;;;;;19.97;49.84;98692.91;4898344;29;4203;-60
2023/01/18 04:50:49;;;;;;;;;;;;;;;19.99;49.88;98695.09;4897901;29;4229;-60
2023/01/18 04:53:16;;;;;;;;;;;;;;;19.98;49.89;98687.91;4897828;29;5284;-60
2023/01/18 04:55:42;;;;;;;;;;;;;;;19.99;49.77;98692.94;4901128;29;5473;-60
2023/01/18 04:58:09;;;;;;;;;;;;;;;19.99;49.81;98684.34;4892822;29;4404;-60
2023/01/18 05:00:38;;;;;;;;;;;;;;;20.00;49.95;98696.56;4897328;29;4194;-60
2023/01/18 05:03:08;;;;;;;;;;;;;;;19.99;49.69;98695.81;4896553;29;4233;-60
2023/01/18 05:05:34;;;;;;;;;;;;;;;19.99;50.03;98684.34;4897211;29;5328;-60
2023/01/18 05:08:01;;;;;;;;;;;;;;;19.99;49.89;98698.69;4895563;29;4300;-60
2023/01/18 05:10:27;;;;;;;;;;;;;;;20.00;49.94;98714.53;4900765;29;5294;-61
2023/01/18 05:12:54;;;;;;;;;;;;;;;19.99;49.75;98712.34;4896944;29;4361;-60
2023/01/18 05:15:20;;;;;;;;;;;;;;;19.98;49.86;98716.66;4895883;29;4393;-61
2023/01/18 05:17:46;;;;;;;;;;;;;;;19.99;50.20;98718.09;4896255;29;5942;-60
2023/01/18 05:20:13;;;;;;;;;;;;;;;19.98;49.73;98723.09;4898043;29;5238;-60
2023/01/18 05:22:39;;;;;;;;;;;;;;;19.97;49.90;98721.63;4894788;29;6695;-61
2023/01/18 05:25:05;;;;;;;;;;;;;;;19.98;49.89;98728.13;4896794;29;5257;-60
2023/01/18 05:27:32;;;;;;;;;;;;;;;19.98;49.88;98728.84;4897044;29;5606;-61
2023/01/18 05:29:58;;;;;;;;;;;;;;;19.99;49.86;98736.03;4893439;29;3984;-61
2023/01/18 05:32:24;;;;;;;;;;;;;;;20.00;49.79;98731.03;4895231;29;4226;-60
2023/01/18 05:34:51;;;;;;;;;;;;;;;20.00;49.83;98742.53;4899405;29;4410;-60
2023/01/18 05:37:17;;;;;;;;;;;;;;;19.99;49.77;98733.16;4898531;29;5134;-60
2023/01/18 05:39:43;;;;;;;;;;;;;;;20.00;49.79;98737.50;4897726;29;4911;-61
2023/01/18 05:42:10;;;;;;;;;;;;;;;20.01;49.77;98750.44;4892669;29;5394;-60
2023/01/18 05:44:36;;;;;;;;;;;;;;;20.01;49.87;98750.44;4887310;29;4223;-60
2023/01/18 05:47:02;;;;;;;;;;;;;;;19.99;49.87;98753.28;4888371;29;5541;-61
2023/01/18 05:49:29;;;;;;;;;;;;;;;20.02;49.75;98757.63;4888673;29;4227;-61
2023/01/18 05:51:55;;;;;;;;;;;;;;;19.94;50.11;98756.78;4890847;29;4422;-63
2023/01/18 05:54:21;;;;;;;;;;;;;;;19.58;48.61;98744.00;4892623;29;5552;-66
2023/01/18 05:56:48;;;;;;;;;;;;;;;19.70;49.59;98751.41;4889745;29;4175;-67
2023/01/18 05:59:14;;;;;;;;;;;;;;;19.82;47.45;98749.44;4888579;29;4223;-67
2023/01/18 06:04:39;;;;;;;;;;;;;;;19.84;48.08;98760.25;4871891;29;5378;-67
2023/01/18 06:07:08;;;;;;;;;;;;;;;19.88;48.18;98754.53;4896038;29;4320;-66
2023/01/18 06:09:34;;;;;;;;;;;;;;;19.91;48.06;98761.06;4895255;29;4488;-67
2023/01/18 06:12:00;;;;;;;;;;;;;;;19.93;47.94;98766.81;4895294;29;4293;-66
2023/01/18 06:14:27;;;;;;;;;;;;;;;19.93;47.99;98761.81;4895051;29;4220;-67
2023/01/18 06:16:53;;;;;;;;;;;;;;;19.97;48.36;98761.84;4895893;29;4142;-68
2023/01/18 06:19:19;;;;;;;;;;;;;;;19.98;48.32;98771.22;4895495;29;4194;-67
2023/01/18 06:21:46;;;;;;;;;;;;;;;19.99;48.45;98769.78;4892055;29;4206;-67
2023/01/18 06:24:13;;;;;;;;;;;;;;;20.01;48.50;98769.81;4894488;29;4204;-66
2023/01/18 06:26:39;;;;;;;;;;;;;;;20.01;48.51;98772.69;4892440;29;4162;-66
2023/01/18 06:29:05;;;;;;;;;;;;;;;20.00;49.37;98771.97;4898182;29;5353;-65
2023/01/18 06:31:32;;;;;;;;;;;;;;;20.01;49.20;98784.19;4895680;29;4030;-65
2023/01/18 06:33:58;;;;;;;;;;;;;;;20.02;49.08;98791.38;4897946;29;5255;-66
2023/01/18 06:36:25;;;;;;;;;;;;;;;20.01;49.16;98796.41;4899433;29;4163;-67
2023/01/18 06:38:51;;;;;;;;;;;;;;;20.01;49.22;98799.25;4896170;29;5227;-66
2023/01/18 06:41:18;;;;;;;;;;;;;;;20.01;49.30;98802.13;4896477;29;4254;-67
2023/01/18 06:43:44;;;;;;;;;;;;;;;20.01;49.53;98802.13;4898269;29;4255;-66
2023/01/18 06:46:10;;;;;;;;;;;;;;;20.00;49.47;98799.97;4898473;29;4171;-67
2023/01/18 06:48:37;;;;;;;;;;;;;;;20.04;49.67;98800.75;4894321;29;4239;-71
2023/01/18 06:51:03;;;;;;;;;;;;;;;20.05;49.46;98807.22;4894290;29;4147;-71
2023/01/18 06:53:30;;;;;;;;;;;;;;;20.03;49.78;98810.78;4895475;29;3993;-71
2023/01/18 06:55:56;;;;;;;;;;;;;;;20.04;49.32;98800.00;4898274;29;5474;-70
2023/01/18 06:58:24;;;;;;;;;;;;;;;20.03;49.17;98810.06;4899071;29;4192;-70
2023/01/18 07:00:57;;;;;;;;;;;;;;;20.04;48.72;98811.50;4899727;29;4159;-71
2023/01/18 07:03:24;;;;;;;;;;;;;;;20.02;48.61;98806.47;4898189;29;6389;-70
2023/01/18 07:05:53;;;;;;;;;;;;;;;20.02;48.50;98809.34;4896939;29;4134;-70
2023/01/18 07:08:19;;;;;;;;;;;;;;;20.02;48.13;98815.09;4893215;29;4209;-70
2023/01/18 07:10:46;;;;;;;;;;;;;;;20.02;47.88;98820.84;4897031;29;4113;-70
2023/01/18 07:13:13;;;;;;;;;;;;;;;20.01;47.88;98830.16;4895051;29;5679;-70
2023/01/18 07:15:39;;;;;;;;;;;;;;;20.03;46.98;98816.53;4898406;29;5233;-70
2023/01/18 07:18:05;;;;;;;;;;;;;;;20.05;47.31;98825.19;4900339;29;4285;-70
2023/01/18 07:20:32;;;;;;;;;;;;;;;20.01;47.16;98830.88;4898917;29;4187;-70
2023/01/18 07:22:58;;;;;;;;;;;;;;;19.99;46.86;98816.47;4904533;29;3915;-70
2023/01/18 07:25:26;;;;;;;;;;;;;;;19.98;46.73;98826.50;4903246;29;4198;-70
2023/01/18 07:27:52;;;;;;;;;;;;;;;19.97;46.59;98827.91;4898337;29;4199;-70
2023/01/18 07:30:19;;;;;;;;;;;;;;;19.98;44.59;98838.00;4914356;29;4041;-68
2023/01/18 07:32:47;;;;;;;;;;;;;;;20.02;44.83;98837.31;4901665;29;5185;-72
2023/01/18 07:35:14;;;;;;;;;;;;;;;20.04;45.88;98840.22;4905524;29;5040;-71
2023/01/18 07:37:40;;;;;;;;;;;;;;;20.03;45.69;98844.53;4903954;29;5380;-73
2023/01/18 07:40:10;;;;;;;;;;;;;;;20.09;46.21;98827.41;4906765;29;5199;-73
2023/01/18 07:42:36;;;;;;;;;;;;;;;20.07;45.99;98827.38;4900230;29;4214;-70
2023/01/18 07:45:02;;;;;;;;;;;;;;;19.98;46.30;98835.13;4906636;29;4217;-76
2023/01/18 07:47:29;;;;;;;;;;;;;;;19.91;46.35;98832.88;4902079;29;4205;-73
2023/01/18 07:49:55;;;;;;;;;;;;;;;19.89;45.75;98830.69;4900237;29;4146;-74
2023/01/18 07:52:21;;;;;;;;;;;;;;;19.91;45.04;98833.59;4903350;29;4292;-75
2023/01/18 07:54:48;;;;;;;;;;;;;;;19.94;45.04;98832.19;4897417;29;5352;-74
2023/01/18 07:57:14;;;;;;;;;;;;;;;19.95;44.91;98827.91;4896064;29;4421;-74
2023/01/18 07:59:40;;;;;;;;;;;;;;;19.95;45.05;98839.41;4902537;29;4154;-72
2023/01/18 08:02:09;;;;;;;;;;;;;;;19.95;45.24;98833.66;4899334;29;4346;-71
2023/01/18 08:04:36;;;;;;;;;;;;;;;19.96;45.21;98840.84;4894026;29;4256;-72
2023/01/18 08:07:02;;;;;;;;;;;;;;;19.98;45.09;98848.78;4895099;29;4210;-75
2023/01/18 08:09:28;;;;;;;;;;;;;;;20.00;45.09;98843.78;4899468;29;4382;-76
2023/01/18 08:11:55;;;;;;;;;;;;;;;19.98;45.29;98848.78;4897967;29;4053;-76
2023/01/18 08:14:21;;;;;;;;;;;;;;;19.97;45.25;98842.28;4895296;29;4006;-74
2023/01/18 08:16:47;;;;;;;;;;;;;;;19.97;45.42;98844.44;4900527;29;4100;-75
2023/01/18 08:19:15;;;;;;;;;;;;;;;19.97;45.32;98845.16;4898638;29;4141;-74
2023/01/18 08:21:42;;;;;;;;;;;;;;;19.97;45.46;98845.16;4898844;29;4065;-75
2023/01/18 08:24:08;;;;;;;;;;;;;;;19.97;45.37;98853.78;4901611;29;3961;-74
2023/01/18 08:26:34;;;;;;;;;;;;;;;19.99;45.73;98850.22;4900197;29;4036;-74
2023/01/18 08:29:01;;;;;;;;;;;;;;;19.99;45.79;98853.81;4899455;29;4034;-75
2023/01/18 08:31:27;;;;;;;;;;;;;;;19.98;45.94;98852.38;4902373;29;3922;-73
2023/01/18 08:33:53;;;;;;;;;;;;;;;20.00;45.76;98846.66;4901806;29;4475;-74
2023/01/18 08:36:21;;;;;;;;;;;;;;;20.02;45.95;98852.44;4901855;29;4061;-74
2023/01/18 08:38:48;;;;;;;;;;;;;;;20.02;45.86;98860.31;4899913;29;4350;-74
2023/01/18 08:41:14;;;;;;;;;;;;;;;20.01;46.00;98859.59;4900741;29;4085;-74
2023/01/18 08:43:41;;;;;;;;;;;;;;;20.02;45.89;98866.81;4900765;29;4291;-74
2023/01/18 08:46:08;;;;;;;;;;;;;;;20.01;46.04;98873.22;4900931;29;4049;-74
2023/01/18 08:48:34;;;;;;;;;;;;;;;20.00;46.16;98863.91;4897046;29;4142;-73
2023/01/18 08:51:01;;;;;;;;;;;;;;;19.99;46.27;98871.03;4900074;29;3955;-73
2023/01/18 08:53:28;;;;;;;;;;;;;;;20.01;46.15;98870.34;4897928;29;4189;-74
2023/01/18 08:55:54;;;;;;;;;;;;;;;20.01;46.22;98876.09;4898793;29;4173;-74
2023/01/18 08:58:20;;;;;;;;;;;;;;;20.01;46.19;98876.81;4901323;29;3929;-74
2023/01/18 09:00:49;;;;;;;;;;;;;;;20.01;46.26;98871.09;4901000;29;4101;-73
2023/01/18 09:03:21;;;;;;;;;;;;;;;20.02;46.26;98878.28;4899089;29;4806;-74
2023/01/18 09:05:48;;;;;;;;;;;;;;;20.01;46.39;98876.81;4900088;29;4130;-76
2023/01/18 09:08:14;;;;;;;;;;;;;;;20.03;46.31;98873.28;4897793;29;5335;-75
2023/01/18 09:10:41;;;;;;;;;;;;;;;20.04;46.42;98875.47;4900780;29;5254;-76
2023/01/18 09:13:08;;;;;;;;;;;;;;;20.04;46.45;98892.69;4900663;29;4535;-78
2023/01/18 09:15:35;;;;;;;;;;;;;;;20.06;46.47;98889.09;4901645;29;4252;-76
2023/01/18 09:18:04;;;;;;;;;;;;;;;20.06;46.53;98889.84;4902418;29;4023;-76
2023/01/18 09:20:32;;;;;;;;;;;;;;;20.06;46.42;98886.97;4898905;29;4256;-75
2023/01/18 09:23:01;;;;;;;;;;;;;;;20.07;46.50;98891.28;4899147;29;4163;-76
2023/01/18 09:25:28;;;;;;;;;;;;;;;20.08;46.75;98904.22;4899816;29;5030;-74
2023/01/18 09:27:54;;;;;;;;;;;;;;;20.07;46.59;98905.66;4901743;29;5633;-76
2023/01/18 09:30:20;;;;;;;;;;;;;;;20.09;46.52;98902.09;4899862;29;4203;-79
2023/01/18 09:32:47;;;;;;;;;;;;;;;20.08;46.72;98907.09;4901790;29;4157;-76
2023/01/18 09:35:16;;;;;;;;;;;;;;;20.07;46.76;98907.81;4898319;29;4321;-78
2023/01/18 09:37:44;;;;;;;;;;;;;;;20.05;46.67;98917.13;4900752;29;4157;-77
2023/01/18 09:40:14;;;;;;;;;;;;;;;20.06;46.79;98912.81;4896572;29;5283;-79
2023/01/18 09:42:43;;;;;;;;;;;;;;;20.05;46.81;98914.25;4898719;29;4185;-75
2023/01/18 09:45:16;;;;;;;;;;;;;;;20.06;46.87;98909.94;4889358;29;5179;-81
2023/01/18 09:47:43;;;;;;;;;;;;;;;20.07;46.81;98917.16;4909798;29;4516;-78
2023/01/18 09:50:16;;;;;;;;;;;;;;;20.06;46.97;98912.81;4896438;29;4207;-77
2023/01/18 09:52:47;;;;;;;;;;;;;;;20.07;46.86;98914.28;4891889;29;4271;-75
2023/01/18 09:55:13;;;;;;;;;;;;;;;20.05;47.16;98917.13;4892765;29;4113;-76
2023/01/18 09:57:45;;;;;;;;;;;;;;;20.02;46.92;98912.75;4900029;29;6597;-75
2023/01/18 10:00:15;;;;;;;;;;;;;;;20.03;46.61;98914.22;4898359;29;4081;-74
2023/01/18 10:02:41;;;;;;;;;;;;;;;20.05;46.42;98920.00;4899769;29;4181;-76
2023/01/18 10:05:10;;;;;;;;;;;;;;;20.07;46.43;98919.31;4898098;29;4120;-77
2023/01/18 10:07:38;;;;;;;;;;;;;;;20.08;46.75;98915.72;4899806;29;4058;-79
2023/01/18 10:10:05;;;;;;;;;;;;;;;20.11;46.82;98924.38;4894010;29;4145;-79
2023/01/18 10:12:34;;;;;;;;;;;;;;;20.11;46.62;98910.00;4900463;29;4188;-78
2023/01/18 10:15:03;;;;;;;;;;;;;;;20.11;46.69;98916.47;4895719;29;4215;-76
2023/01/18 10:17:34;;;;;;;;;;;;;;;20.09;46.63;98917.19;4898335;29;4179;-76
2023/01/18 10:20:04;;;;;;;;;;;;;;;20.09;46.72;98914.31;4900333;29;4229;-77
2023/01/18 10:22:32;;;;;;;;;;;;;;;20.09;46.74;98922.94;4898786;29;4091;-75
2023/01/18 10:25:20;;;;;;;;;;;;;;;20.10;46.85;98923.66;4903871;29;4189;-76
2023/01/18 10:28:08;;;;;;;;;;;;;;;20.08;46.89;98921.47;4898429;29;6364;-77
2023/01/18 10:30:44;;;;;;;;;;;;;;;20.10;46.87;98929.41;4900156;29;4459;-76
2023/01/18 10:33:15;;;;;;;;;;;;;;;20.13;46.92;98938.78;4892007;29;4180;-67
2023/01/18 10:35:44;;;;;;;;;;;;;;;20.08;47.13;98930.09;4892920;29;4007;-69
2023/01/18 10:38:11;;;;;;;;;;;;;;;20.12;47.09;98928.72;4893895;29;4199;-70
2023/01/18 10:40:38;;;;;;;;;;;;;;;20.11;47.29;98925.09;4897688;29;4131;-72
2023/01/18 10:43:09;;;;;;;;;;;;;;;20.20;47.03;98928.84;4890760;29;5405;-74
2023/01/18 10:45:35;;;;;;;;;;;;;;;20.14;46.81;98931.63;4894955;29;4944;-73
2023/01/18 10:48:13;;;;;;;;;;;;;;;20.13;46.62;98933.03;4898768;29;4552;-74
2023/01/18 10:50:41;;;;;;;;;;;;;;;20.12;46.78;98932.31;4888951;29;4132;-78
2023/01/18 10:53:22;;;;;;;;;;;;;;;20.13;47.04;98938.78;4897680;29;4211;-74
2023/01/18 10:56:12;;;;;;;;;;;;;;;20.13;46.89;98933.03;4899476;29;4085;-74
2023/01/18 10:58:47;;;;;;;;;;;;;;;20.09;46.80;98940.19;4891528;29;4452;-74
2023/01/18 11:01:14;;;;;;;;;;;;;;;20.09;46.93;98937.31;4894522;29;4020;-74
2023/01/18 11:03:45;;;;;;;;;;;;;;;20.08;46.75;98938.72;4900213;29;4150;-75
2023/01/18 11:06:15;;;;;;;;;;;;;;;20.09;46.77;98940.19;4896263;29;4105;-74
2023/01/18 11:08:42;;;;;;;;;;;;;;;20.08;46.77;98938.00;4897433;29;4137;-73
2023/01/18 11:11:15;;;;;;;;;;;;;;;20.08;46.99;98938.00;4900522;29;4217;-75
2023/01/18 11:13:43;;;;;;;;;;;;;;;20.07;46.98;98942.28;4902789;29;5122;-74
2023/01/18 11:16:11;;;;;;;;;;;;;;;20.06;46.78;98941.53;4898953;29;4148;-75
2023/01/18 11:18:53;;;;;;;;;;;;;;;20.06;46.84;98937.94;4902043;29;4520;-74
2023/01/18 11:21:19;;;;;;;;;;;;;;;20.06;46.92;98944.41;4900216;29;4198;-74
2023/01/18 11:23:46;;;;;;;;;;;;;;;20.06;46.93;98947.28;4895153;29;4243;-74
2023/01/18 11:26:13;;;;;;;;;;;;;;;20.08;46.97;98953.06;4917160;29;4145;-74
2023/01/18 11:28:59;;;;;;;;;;;;;;;20.08;46.96;98955.22;4904885;29;4148;-74
2023/01/18 11:31:26;;;;;;;;;;;;;;;20.08;47.03;98944.44;4901161;29;4120;-74
2023/01/18 11:33:53;;;;;;;;;;;;;;;20.09;46.81;98948.78;4900912;29;5214;-74
2023/01/18 11:36:20;;;;;;;;;;;;;;;20.11;46.99;98944.50;4899845;29;4114;-74
2023/01/18 11:38:46;;;;;;;;;;;;;;;20.10;46.88;98952.38;4916127;29;4176;-74
2023/01/18 11:41:14;;;;;;;;;;;;;;;20.09;46.98;98948.78;4896953;29;4016;-74
2023/01/18 11:43:59;;;;;;;;;;;;;;;20.07;46.85;98954.50;4897076;29;4214;-74
2023/01/18 11:46:28;;;;;;;;;;;;;;;20.07;46.88;98957.38;4898328;29;4188;-73
2023/01/18 11:48:56;;;;;;;;;;;;;;;20.08;47.05;98960.97;4896671;29;4181;-73
2023/01/18 11:51:42;;;;;;;;;;;;;;;20.08;46.88;98958.09;4898832;29;5263;-74
2023/01/18 11:54:27;;;;;;;;;;;;;;;20.07;46.96;98960.25;4903833;29;5013;-74
2023/01/18 11:56:54;;;;;;;;;;;;;;;20.06;47.01;98953.03;4898696;29;4039;-75
2023/01/18 11:59:24;;;;;;;;;;;;;;;20.07;47.04;98951.63;4912809;29;5376;-74
2023/01/18 12:02:01;;;;;;;;;;;;;;;20.07;46.95;98957.38;4894655;29;3989;-74
2023/01/18 12:04:51;;;;;;;;;;;;;;;20.07;46.80;98960.25;4913646;29;4080;-71
2023/01/18 12:07:26;;;;;;;;;;;;;;;20.08;46.98;98966.72;4906979;29;4165;-74
2023/01/18 12:10:02;;;;;;;;;;;;;;;20.09;46.93;98963.16;4902416;29;5007;-74
2023/01/18 12:12:32;;;;;;;;;;;;;;;20.11;47.01;98964.59;4912434;29;4128;-73
2023/01/18 12:15:06;;;;;;;;;;;;;;;20.11;47.04;98970.34;4902425;29;4206;-73
2023/01/18 12:17:36;;;;;;;;;;;;;;;20.11;46.98;98976.81;4897034;29;4196;-73
2023/01/18 12:20:23;;;;;;;;;;;;;;;20.11;46.85;98971.06;4898204;29;5200;-74
2023/01/18 12:23:01;;;;;;;;;;;;;;;20.12;47.03;98980.44;4901235;29;4414;-73
2023/01/18 12:25:33;;;;;;;;;;;;;;;20.12;46.95;98989.06;4900984;29;4060;-74
2023/01/18 12:28:14;;;;;;;;;;;;;;;20.11;47.01;98976.81;4899345;29;4128;-73
2023/01/18 12:31:04;;;;;;;;;;;;;;;20.10;46.93;98986.88;4917740;29;4147;-73
2023/01/18 12:33:44;;;;;;;;;;;;;;;20.09;47.20;98980.41;4898838;29;4323;-73
2023/01/18 12:36:23;;;;;;;;;;;;;;;20.09;47.14;98994.75;4898404;29;4140;-74
2023/01/18 12:38:50;;;;;;;;;;;;;;;20.09;46.98;99003.38;4892628;29;5319;-73
2023/01/18 12:41:22;;;;;;;;;;;;;;;20.09;47.09;98997.63;4890989;29;4177;-74
2023/01/18 12:43:56;;;;;;;;;;;;;;;20.07;46.97;99005.50;4895927;29;4360;-73
2023/01/18 12:46:26;;;;;;;;;;;;;;;20.09;46.91;99011.28;4896645;29;4145;-73
2023/01/18 12:49:17;;;;;;;;;;;;;;;20.11;47.13;99016.31;4896017;29;5196;-74
2023/01/18 12:51:44;;;;;;;;;;;;;;;20.11;47.08;99016.31;4900467;29;4023;-74
2023/01/18 12:54:22;;;;;;;;;;;;;;;20.12;47.07;99018.50;4898950;29;4123;-73
2023/01/18 12:56:49;;;;;;;;;;;;;;;20.12;46.99;99014.91;4895334;29;4603;-74
2023/01/18 12:59:19;;;;;;;;;;;;;;;20.13;47.20;99024.97;4897623;29;4218;-74
2023/01/18 13:01:50;;;;;;;;;;;;;;;20.13;47.04;99033.59;4899584;29;4103;-73
2023/01/18 13:04:19;;;;;;;;;;;;;;;20.13;47.02;99027.84;4898908;29;4323;-73
2023/01/18 13:06:47;;;;;;;;;;;;;;;20.11;47.10;99034.28;4894284;29;4156;-73
2023/01/18 13:09:18;;;;;;;;;;;;;;;20.12;47.13;99029.28;4894738;29;4289;-73
2023/01/18 13:11:44;;;;;;;;;;;;;;;20.12;47.05;99035.03;4895239;29;4452;-74
2023/01/18 13:14:16;;;;;;;;;;;;;;;20.10;47.08;99035.72;4910063;29;5300;-74
2023/01/18 13:16:44;;;;;;;;;;;;;;;20.09;47.14;99040.75;4898370;29;4342;-74
2023/01/18 13:19:12;;;;;;;;;;;;;;;20.10;46.98;99044.31;4897786;29;4462;-75
2023/01/18 13:21:53;;;;;;;;;;;;;;;20.09;47.00;99055.09;4910508;29;5306;-74
2023/01/18 13:24:28;;;;;;;;;;;;;;;20.11;46.96;99056.53;4900213;29;5256;-75
2023/01/18 13:27:06;;;;;;;;;;;;;;;20.10;46.93;99061.56;4899786;29;4085;-74
2023/01/18 13:29:32;;;;;;;;;;;;;;;20.12;47.06;99066.63;4899296;29;4168;-75
2023/01/18 13:31:58;;;;;;;;;;;;;;;20.12;47.10;99063.75;4899408;29;4308;-76
2023/01/18 13:34:35;;;;;;;;;;;;;;;20.12;47.02;99067.34;4913064;29;4085;-75
2023/01/18 13:37:13;;;;;;;;;;;;;;;20.12;47.09;99072.38;4898246;29;4329;-74
2023/01/18 13:39:44;;;;;;;;;;;;;;;20.13;47.19;99079.56;4894927;29;4000;-75
2023/01/18 13:42:10;;;;;;;;;;;;;;;20.13;47.00;99076.69;4912908;29;4292;-74
2023/01/18 13:44:38;;;;;;;;;;;;;;;20.12;47.06;99075.97;4899528;29;4245;-74
2023/01/18 13:47:23;;;;;;;;;;;;;;;20.11;47.19;99085.28;4894654;29;5522;-74
2023/01/18 13:49:49;;;;;;;;;;;;;;;20.11;47.09;99079.53;4894069;29;4472;-74
2023/01/18 13:52:29;;;;;;;;;;;;;;;20.09;47.20;99080.97;4900374;29;4147;-80
2023/01/18 13:54:56;;;;;;;;;;;;;;;20.08;47.23;99088.09;4898463;29;4101;-75
2023/01/18 13:57:23;;;;;;;;;;;;;;;20.07;47.04;99086.66;4902151;29;4027;-75
2023/01/18 13:59:49;;;;;;;;;;;;;;;20.09;46.67;99100.34;4900165;29;5563;-75
2023/01/18 14:02:18;;;;;;;;;;;;;;;20.08;46.82;99099.59;4894372;29;4116;-76
2023/01/18 14:04:45;;;;;;;;;;;;;;;20.09;46.88;99103.94;4895002;29;4381;-74
2023/01/18 14:07:17;;;;;;;;;;;;;;;20.15;46.94;99106.19;4898699;29;4062;-71
2023/01/18 14:09:43;;;;;;;;;;;;;;;20.20;46.89;99110.63;4911013;29;5115;-74
2023/01/18 14:12:10;;;;;;;;;;;;;;;20.18;46.96;99115.59;4900085;29;4210;-73
2023/01/18 14:14:53;;;;;;;;;;;;;;;20.16;46.99;99121.28;4912113;29;5257;-71
2023/01/18 14:17:19;;;;;;;;;;;;;;;20.18;46.91;99133.56;4898212;29;4039;-72
2023/01/18 14:19:45;;;;;;;;;;;;;;;20.17;47.11;99134.97;4896021;29;5282;-70
2023/01/18 14:22:18;;;;;;;;;;;;;;;20.14;47.07;99138.50;4898156;29;4036;-70
2023/01/18 14:24:54;;;;;;;;;;;;;;;20.15;47.09;99143.56;4900468;29;4380;-69
2023/01/18 14:27:21;;;;;;;;;;;;;;;20.15;47.13;99148.56;4901830;29;4151;-68
2023/01/18 14:29:51;;;;;;;;;;;;;;;20.18;47.23;99158.69;4899119;29;4041;-69
2023/01/18 14:32:20;;;;;;;;;;;;;;;20.18;47.11;99159.44;4898926;29;4131;-70
2023/01/18 14:34:59;;;;;;;;;;;;;;;20.17;47.28;99157.25;4898738;29;4299;-69